Yuuki — JD3732 — position and weather

sailwx.info

Track history (hours):
 
Tides and Currents Weather Stations Pressure Air Temp Water Temp Dewpoint Dewpoint Depression Visibility Wind Speed Wind Dir Waves Ship Positions

Yuuki

Last reported at 2017-Nov-16 09:46 UTC. Time now 2017-Nov-24 00:22 UTC.
Position N 35°01' E 139°30'.

Length 60 m; draft 4 m.

Type: Tanker. MMSI: 431005675.

Date/timePositionNaut miles runAvg speedWind from/ knotsBaromVisibWave heightAir tempDewpointWater temp
2017-Nov-16 09:46N 35°01' E 139°30'511.4
2017-Nov-16 09:20N 35°04' E 139°35'411.3
2017-Nov-16 09:00N 35°06' E 139°39'611.4
2017-Nov-16 08:30N 35°10' E 139°44'611.8
2017-Nov-16 08:01N 35°15' E 139°46'612.3
2017-Nov-16 07:30N 35°21' E 139°42'611.9
2017-Nov-16 07:00N 35°26' E 139°45'1 1.6
2017-Nov-16 06:25N 35°27' E 139°45'0 0.1
2017-Nov-16 05:55N 35°27' E 139°45'0 0.0
2017-Nov-16 05:28N 35°27' E 139°45'3 5.6
2017-Nov-16 05:00N 35°25' E 139°43'4 7.7
2017-Nov-16 04:30N 35°22' E 139°40'0 0.0
2017-Nov-16 04:00N 35°22' E 139°40'0 0.0
2017-Nov-16 03:30N 35°22' E 139°40'0 0.1
2017-Nov-16 02:57N 35°22' E 139°40'0 0.0
2017-Nov-16 02:27N 35°22' E 139°40'0 0.0
2017-Nov-16 02:00N 35°22' E 139°40'0 0.0
2017-Nov-16 01:30N 35°22' E 139°40'0 0.0
2017-Nov-16 01:00N 35°22' E 139°40'0 0.0
2017-Nov-16 00:30N 35°22' E 139°40'0 0.0
2017-Nov-16 00:00N 35°22' E 139°40'0 0.0
2017-Nov-15 23:30N 35°22' E 139°40'0 0.0
2017-Nov-15 23:00N 35°22' E 139°40'0 0.0
2017-Nov-15 22:30N 35°22' E 139°40'0 0.0
2017-Nov-15 22:00N 35°22' E 139°40'0 0.1
2017-Nov-15 21:30N 35°22' E 139°40'0 0.1
2017-Nov-15 21:00N 35°22' E 139°40'0 0.1
2017-Nov-15 20:30N 35°22' E 139°40'0 0.0
2017-Nov-15 20:00N 35°22' E 139°40'0 0.0
2017-Nov-15 19:30N 35°22' E 139°40'0 0.0
2017-Nov-15 19:00N 35°22' E 139°40'0 0.0
2017-Nov-15 18:30N 35°22' E 139°40'0 0.0
2017-Nov-15 18:00N 35°22' E 139°40'0 0.0
2017-Nov-15 17:30N 35°22' E 139°40'0 0.0
2017-Nov-15 17:00N 35°22' E 139°40'0 0.0
2017-Nov-15 16:30N 35°22' E 139°40'0 0.0
2017-Nov-15 16:00N 35°22' E 139°40'0 0.0
2017-Nov-15 15:30N 35°22' E 139°40'0 0.0
2017-Nov-15 15:00N 35°22' E 139°40'0 0.1
2017-Nov-15 14:30N 35°22' E 139°40'1 1.8
2017-Nov-15 14:00N 35°23' E 139°41'0 0.0
2017-Nov-15 13:31N 35°23' E 139°41'0 0.1
2017-Nov-15 13:00N 35°23' E 139°41'0 0.1
2017-Nov-15 12:30N 35°22' E 139°41'0 0.1
2017-Nov-15 12:00N 35°22' E 139°41'0 0.0
2017-Nov-15 11:31N 35°22' E 139°41'1 1.4
2017-Nov-15 11:01N 35°22' E 139°40'0 0.0
2017-Nov-15 10:30N 35°22' E 139°40'0 0.1
2017-Nov-15 10:00N 35°22' E 139°40'5 9.6
2017-Nov-15 09:30N 35°26' E 139°44'612.5
2017-Nov-15 09:00N 35°29' E 139°51'1 0.3
2017-Nov-15 03:29N 35°28' E 139°51'511.4
2017-Nov-15 03:00N 35°25' E 139°45'4 8.2
2017-Nov-15 02:30N 35°23' E 139°41'0 0.0
2017-Nov-15 02:00N 35°23' E 139°41'0 0.0
2017-Nov-15 01:30N 35°23' E 139°41'0 0.1
2017-Nov-15 01:00N 35°23' E 139°41'0 0.1
2017-Nov-15 00:30N 35°22' E 139°41'0 0.9
2017-Nov-15 00:00N 35°22' E 139°41'1 1.2
2017-Nov-14 23:30N 35°22' E 139°40'0 0.0
2017-Nov-14 23:00N 35°22' E 139°40'0 0.0
2017-Nov-14 22:30N 35°22' E 139°40'0 0.0
2017-Nov-14 21:57N 35°22' E 139°40'0 0.1
2017-Nov-14 21:30N 35°22' E 139°40'0 0.0
2017-Nov-14 20:57N 35°22' E 139°40'0 0.0
2017-Nov-14 20:30N 35°22' E 139°40'0 0.0
2017-Nov-14 19:59N 35°22' E 139°40'0 0.0
2017-Nov-14 19:26N 35°22' E 139°40'0 0.0
2017-Nov-14 19:00N 35°22' E 139°40'0 0.0
2017-Nov-14 18:29N 35°22' E 139°40'0 0.0
2017-Nov-14 17:54N 35°22' E 139°40'0 0.0
2017-Nov-14 17:23N 35°22' E 139°40'0 0.0
2017-Nov-14 16:59N 35°22' E 139°40'0 0.0
2017-Nov-14 16:30N 35°22' E 139°40'0 0.0
2017-Nov-14 15:59N 35°22' E 139°40'0 0.1
2017-Nov-14 15:30N 35°22' E 139°40'0 0.0
2017-Nov-14 14:59N 35°22' E 139°40'0 0.0
2017-Nov-14 14:30N 35°22' E 139°40'0 0.0
2017-Nov-14 14:00N 35°22' E 139°40'1 1.3
2017-Nov-14 13:30N 35°23' E 139°41'611.9
2017-Nov-14 13:01N 35°27' E 139°45'4 8.7
2017-Nov-14 12:30N 35°31' E 139°46'0 0.1
2017-Nov-14 12:01N 35°31' E 139°46'0 0.0
2017-Nov-14 10:44N 35°31' E 139°46'0 0.0
2017-Nov-14 10:20N 35°31' E 139°46'0 0.0
2017-Nov-14 10:00N 35°31' E 139°46'0 0.0
2017-Nov-14 09:27N 35°31' E 139°46'1 1.8
2017-Nov-14 09:00N 35°31' E 139°46'0 0.1
2017-Nov-14 08:30N 35°31' E 139°46'0 0.0
2017-Nov-14 08:00N 35°31' E 139°46'0 0.0
2017-Nov-14 06:43N 35°31' E 139°46'0 0.4
2017-Nov-14 06:30N 35°31' E 139°46'1 2.0
2017-Nov-14 06:00N 35°30' E 139°45'4 8.5
2017-Nov-14 05:30N 35°27' E 139°43'2 4.4
2017-Nov-14 05:00N 35°27' E 139°40'0 0.0
2017-Nov-14 04:30N 35°27' E 139°40'0 0.0
2017-Nov-14 04:00N 35°27' E 139°40'0 0.0
2017-Nov-14 03:27N 35°27' E 139°40'0 0.0
2017-Nov-14 03:00N 35°27' E 139°40'0 0.0
2017-Nov-14 02:30N 35°27' E 139°40'0 0.0
2017-Nov-14 01:57N 35°27' E 139°40'0 0.0
2017-Nov-14 01:30N 35°27' E 139°40'0 0.0
2017-Nov-14 01:00N 35°27' E 139°40'0 0.0
2017-Nov-14 00:30N 35°27' E 139°40'0 0.0
2017-Nov-13 23:57N 35°27' E 139°40'0 0.0
2017-Nov-13 23:30N 35°27' E 139°40'0 0.0
2017-Nov-13 22:57N 35°27' E 139°40'0 0.0
2017-Nov-13 22:30N 35°27' E 139°40'0 0.0
2017-Nov-13 22:00N 35°27' E 139°40'8 0.3
2017-Nov-12 13:44N 35°27' E 139°50'311.8
2017-Nov-12 13:29N 35°25' E 139°48'611.8
2017-Nov-12 13:00N 35°20' E 139°44'511.1
2017-Nov-12 12:30N 35°15' E 139°47'611.3
2017-Nov-12 12:00N 35°09' E 139°46'611.4
2017-Nov-12 11:30N 35°05' E 139°41'712.1
2017-Nov-12 10:57N 35°01' E 139°35'229 9.3
2017-Nov-11 10:21N 34°13' E 135°03'1512.5
2017-Nov-11 09:07N 34°26' E 135°11'112.0
2017-Nov-11 09:00N 34°27' E 135°12'611.7
2017-Nov-11 08:30N 34°31' E 135°18'0 0.8
2017-Nov-11 08:00N 34°31' E 135°18'3 6.0
2017-Nov-11 07:29N 34°32' E 135°22'1 0.3
2017-Nov-11 03:45N 34°33' E 135°23'312.1
2017-Nov-11 03:29N 34°36' E 135°21'5 9.5
2017-Nov-11 03:01N 34°39' E 135°18'0 0.1
2017-Nov-11 02:30N 34°39' E 135°18'0 0.0
2017-Nov-11 02:00N 34°39' E 135°18'0 0.1
2017-Nov-11 01:30N 34°39' E 135°18'0 0.0
2017-Nov-11 00:59N 34°39' E 135°18'0 0.0
2017-Nov-11 00:30N 34°39' E 135°18'0 0.2
2017-Nov-11 00:00N 34°39' E 135°18'0 0.0
2017-Nov-10 23:30N 34°39' E 135°18'0 0.0
2017-Nov-10 23:00N 34°39' E 135°18'0 0.0
2017-Nov-10 22:30N 34°39' E 135°18'0 0.5
2017-Nov-10 22:00N 34°39' E 135°18'2 3.1
2017-Nov-10 21:30N 34°38' E 135°17'611.4
2017-Nov-10 21:00N 34°37' E 135°10'1 1.2
2017-Nov-10 20:28N 34°37' E 135°09'0 0.0
2017-Nov-10 19:58N 34°37' E 135°09'0 0.0
2017-Nov-10 19:28N 34°37' E 135°09'0 0.0
2017-Nov-10 18:58N 34°37' E 135°09'0 0.0
2017-Nov-10 18:28N 34°37' E 135°09'0 0.0
2017-Nov-10 17:58N 34°37' E 135°09'0 0.0
2017-Nov-10 17:22N 34°37' E 135°09'0 0.0
2017-Nov-10 16:58N 34°37' E 135°09'0 0.1
2017-Nov-10 16:28N 34°37' E 135°09'0 0.0
2017-Nov-10 15:58N 34°37' E 135°09'0 0.0
2017-Nov-10 15:16N 34°37' E 135°09'0 0.0
2017-Nov-10 14:58N 34°37' E 135°09'0 0.0
2017-Nov-10 14:22N 34°37' E 135°09'0 0.0
2017-Nov-10 13:58N 34°37' E 135°09'0 0.0
2017-Nov-10 13:04N 34°37' E 135°09'0 0.1
2017-Nov-10 12:58N 34°37' E 135°09'0 0.0
2017-Nov-10 12:28N 34°37' E 135°09'0 0.1
2017-Nov-10 11:52N 34°37' E 135°09'0 0.0
2017-Nov-10 11:28N 34°37' E 135°09'0 0.0
2017-Nov-10 10:58N 34°37' E 135°09'0 0.0
2017-Nov-10 09:34N 34°37' E 135°09'0 0.0
2017-Nov-10 09:16N 34°37' E 135°09'0 0.0
2017-Nov-10 08:58N 34°37' E 135°09'0 0.0
2017-Nov-10 08:04N 34°37' E 135°09'0 0.0
2017-Nov-10 07:46N 34°37' E 135°09'0 0.0
2017-Nov-10 07:28N 34°37' E 135°09'0 0.0
2017-Nov-10 06:58N 34°37' E 135°09'0 0.0
2017-Nov-10 06:22N 34°37' E 135°09'0 0.0
2017-Nov-10 05:58N 34°37' E 135°09'0 0.0
2017-Nov-10 05:22N 34°37' E 135°09'0 0.0
2017-Nov-10 04:46N 34°37' E 135°09'0 0.0
2017-Nov-10 04:28N 34°37' E 135°09'0 0.0
2017-Nov-10 03:58N 34°37' E 135°09'0 0.0
2017-Nov-10 03:16N 34°37' E 135°09'0 0.0
2017-Nov-10 02:58N 34°37' E 135°09'0 0.0
2017-Nov-10 02:28N 34°37' E 135°09'0 0.2
2017-Nov-10 02:00N 34°37' E 135°09'1 1.6
2017-Nov-10 01:10N 34°39' E 135°09'0 0.0
2017-Nov-10 00:40N 34°39' E 135°09'0 0.0
2017-Nov-10 00:29N 34°39' E 135°09'0 0.0
2017-Nov-10 00:00N 34°39' E 135°09'2 4.2
2017-Nov-09 23:30N 34°40' E 135°11'1 2.7
2017-Nov-09 23:00N 34°41' E 135°12'0 0.0
2017-Nov-09 22:30N 34°41' E 135°12'0 0.0
2017-Nov-09 22:00N 34°41' E 135°12'0 0.0
2017-Nov-09 21:30N 34°41' E 135°12'0 0.0
2017-Nov-09 21:00N 34°41' E 135°12'0 0.0
2017-Nov-09 20:30N 34°41' E 135°12'0 0.0
2017-Nov-09 20:00N 34°41' E 135°12'0 0.0
2017-Nov-09 19:30N 34°41' E 135°12'0 0.0
2017-Nov-09 19:00N 34°41' E 135°12'0 0.0
2017-Nov-09 18:30N 34°41' E 135°12'0 0.0
2017-Nov-09 17:59N 34°41' E 135°12'0 0.0
2017-Nov-09 17:30N 34°41' E 135°12'0 0.0
2017-Nov-09 17:00N 34°41' E 135°12'0 0.0
2017-Nov-09 16:30N 34°41' E 135°12'0 0.0
2017-Nov-09 16:00N 34°41' E 135°12'0 0.0
2017-Nov-09 15:30N 34°41' E 135°12'0 0.0
2017-Nov-09 15:00N 34°41' E 135°12'0 0.0
2017-Nov-09 14:30N 34°41' E 135°12'0 0.0
2017-Nov-09 14:00N 34°41' E 135°12'0 0.0
2017-Nov-09 13:30N 34°41' E 135°12'0 0.0
2017-Nov-09 13:00N 34°41' E 135°12'0 0.0
2017-Nov-09 12:30N 34°41' E 135°12'0 0.0
2017-Nov-09 12:00N 34°41' E 135°12'0 0.0
2017-Nov-09 11:30N 34°41' E 135°12'0 0.0
2017-Nov-09 11:00N 34°41' E 135°12'0 0.0
2017-Nov-09 10:30N 34°41' E 135°12'0 0.0
2017-Nov-09 10:00N 34°41' E 135°12'0 0.0
2017-Nov-09 09:30N 34°41' E 135°12'0 0.0
2017-Nov-09 09:00N 34°41' E 135°12'0 0.0
2017-Nov-09 08:30N 34°41' E 135°12'0 0.0
2017-Nov-09 08:00N 34°41' E 135°12'0 0.0
2017-Nov-09 07:30N 34°41' E 135°12'0 0.0
2017-Nov-09 07:00N 34°41' E 135°12'0 0.0
2017-Nov-09 06:30N 34°41' E 135°12'0 0.0
2017-Nov-09 06:00N 34°41' E 135°12'0 0.0
2017-Nov-09 05:30N 34°41' E 135°12'2 4.3
2017-Nov-09 05:00N 34°39' E 135°11'4 7.4
2017-Nov-09 04:30N 34°37' E 135°08'  
Track history (hours):
 
Tides and Currents Weather Stations Pressure Air Temp Water Temp Dewpoint Dewpoint Depression Visibility Wind Speed Wind Dir Waves Ship Positions

Yuuki

Last reported at 2017-Nov-16 09:46 UTC. Time now 2017-Nov-24 00:22 UTC.
Position N 35°01' E 139°30'.

Length 60 m; draft 4 m.

Type: Tanker. MMSI: 431005675.

Date/timePositionNaut miles runAvg speedWind from/ knotsBaromVisibWave heightAir tempDewpointWater temp
2017-Nov-16 09:46N 35°01' E 139°30'511.4
2017-Nov-16 09:20N 35°04' E 139°35'411.3
2017-Nov-16 09:00N 35°06' E 139°39'611.4
2017-Nov-16 08:30N 35°10' E 139°44'611.8
2017-Nov-16 08:01N 35°15' E 139°46'612.3
2017-Nov-16 07:30N 35°21' E 139°42'611.9
2017-Nov-16 07:00N 35°26' E 139°45'1 1.6
2017-Nov-16 06:25N 35°27' E 139°45'0 0.1
2017-Nov-16 05:55N 35°27' E 139°45'0 0.0
2017-Nov-16 05:28N 35°27' E 139°45'3 5.6
2017-Nov-16 05:00N 35°25' E 139°43'4 7.7
2017-Nov-16 04:30N 35°22' E 139°40'0 0.0
2017-Nov-16 04:00N 35°22' E 139°40'0 0.0
2017-Nov-16 03:30N 35°22' E 139°40'0 0.1
2017-Nov-16 02:57N 35°22' E 139°40'0 0.0
2017-Nov-16 02:27N 35°22' E 139°40'0 0.0
2017-Nov-16 02:00N 35°22' E 139°40'0 0.0
2017-Nov-16 01:30N 35°22' E 139°40'0 0.0
2017-Nov-16 01:00N 35°22' E 139°40'0 0.0
2017-Nov-16 00:30N 35°22' E 139°40'0 0.0
2017-Nov-16 00:00N 35°22' E 139°40'0 0.0
2017-Nov-15 23:30N 35°22' E 139°40'0 0.0
2017-Nov-15 23:00N 35°22' E 139°40'0 0.0
2017-Nov-15 22:30N 35°22' E 139°40'0 0.0
2017-Nov-15 22:00N 35°22' E 139°40'0 0.1
2017-Nov-15 21:30N 35°22' E 139°40'0 0.1
2017-Nov-15 21:00N 35°22' E 139°40'0 0.1
2017-Nov-15 20:30N 35°22' E 139°40'0 0.0
2017-Nov-15 20:00N 35°22' E 139°40'0 0.0
2017-Nov-15 19:30N 35°22' E 139°40'0 0.0
2017-Nov-15 19:00N 35°22' E 139°40'0 0.0
2017-Nov-15 18:30N 35°22' E 139°40'0 0.0
2017-Nov-15 18:00N 35°22' E 139°40'0 0.0
2017-Nov-15 17:30N 35°22' E 139°40'0 0.0
2017-Nov-15 17:00N 35°22' E 139°40'0 0.0
2017-Nov-15 16:30N 35°22' E 139°40'0 0.0
2017-Nov-15 16:00N 35°22' E 139°40'0 0.0
2017-Nov-15 15:30N 35°22' E 139°40'0 0.0
2017-Nov-15 15:00N 35°22' E 139°40'0 0.1
2017-Nov-15 14:30N 35°22' E 139°40'1 1.8
2017-Nov-15 14:00N 35°23' E 139°41'0 0.0
2017-Nov-15 13:31N 35°23' E 139°41'0 0.1
2017-Nov-15 13:00N 35°23' E 139°41'0 0.1
2017-Nov-15 12:30N 35°22' E 139°41'0 0.1
2017-Nov-15 12:00N 35°22' E 139°41'0 0.0
2017-Nov-15 11:31N 35°22' E 139°41'1 1.4
2017-Nov-15 11:01N 35°22' E 139°40'0 0.0
2017-Nov-15 10:30N 35°22' E 139°40'0 0.1
2017-Nov-15 10:00N 35°22' E 139°40'5 9.6
2017-Nov-15 09:30N 35°26' E 139°44'612.5
2017-Nov-15 09:00N 35°29' E 139°51'1 0.3
2017-Nov-15 03:29N 35°28' E 139°51'511.4
2017-Nov-15 03:00N 35°25' E 139°45'4 8.2
2017-Nov-15 02:30N 35°23' E 139°41'0 0.0
2017-Nov-15 02:00N 35°23' E 139°41'0 0.0
2017-Nov-15 01:30N 35°23' E 139°41'0 0.1
2017-Nov-15 01:00N 35°23' E 139°41'0 0.1
2017-Nov-15 00:30N 35°22' E 139°41'0 0.9
2017-Nov-15 00:00N 35°22' E 139°41'1 1.2
2017-Nov-14 23:30N 35°22' E 139°40'0 0.0
2017-Nov-14 23:00N 35°22' E 139°40'0 0.0
2017-Nov-14 22:30N 35°22' E 139°40'0 0.0
2017-Nov-14 21:57N 35°22' E 139°40'0 0.1
2017-Nov-14 21:30N 35°22' E 139°40'0 0.0
2017-Nov-14 20:57N 35°22' E 139°40'0 0.0
2017-Nov-14 20:30N 35°22' E 139°40'0 0.0
2017-Nov-14 19:59N 35°22' E 139°40'0 0.0
2017-Nov-14 19:26N 35°22' E 139°40'0 0.0
2017-Nov-14 19:00N 35°22' E 139°40'0 0.0
2017-Nov-14 18:29N 35°22' E 139°40'0 0.0
2017-Nov-14 17:54N 35°22' E 139°40'0 0.0
2017-Nov-14 17:23N 35°22' E 139°40'0 0.0
2017-Nov-14 16:59N 35°22' E 139°40'0 0.0
2017-Nov-14 16:30N 35°22' E 139°40'0 0.0
2017-Nov-14 15:59N 35°22' E 139°40'0 0.1
2017-Nov-14 15:30N 35°22' E 139°40'0 0.0
2017-Nov-14 14:59N 35°22' E 139°40'0 0.0
2017-Nov-14 14:30N 35°22' E 139°40'0 0.0
2017-Nov-14 14:00N 35°22' E 139°40'1 1.3
2017-Nov-14 13:30N 35°23' E 139°41'611.9
2017-Nov-14 13:01N 35°27' E 139°45'4 8.7
2017-Nov-14 12:30N 35°31' E 139°46'0 0.1
2017-Nov-14 12:01N 35°31' E 139°46'0 0.0
2017-Nov-14 10:44N 35°31' E 139°46'0 0.0
2017-Nov-14 10:20N 35°31' E 139°46'0 0.0
2017-Nov-14 10:00N 35°31' E 139°46'0 0.0
2017-Nov-14 09:27N 35°31' E 139°46'1 1.8
2017-Nov-14 09:00N 35°31' E 139°46'0 0.1
2017-Nov-14 08:30N 35°31' E 139°46'0 0.0
2017-Nov-14 08:00N 35°31' E 139°46'0 0.0
2017-Nov-14 06:43N 35°31' E 139°46'0 0.4
2017-Nov-14 06:30N 35°31' E 139°46'1 2.0
2017-Nov-14 06:00N 35°30' E 139°45'4 8.5
2017-Nov-14 05:30N 35°27' E 139°43'2 4.4
2017-Nov-14 05:00N 35°27' E 139°40'0 0.0
2017-Nov-14 04:30N 35°27' E 139°40'0 0.0
2017-Nov-14 04:00N 35°27' E 139°40'0 0.0
2017-Nov-14 03:27N 35°27' E 139°40'0 0.0
2017-Nov-14 03:00N 35°27' E 139°40'0 0.0
2017-Nov-14 02:30N 35°27' E 139°40'0 0.0
2017-Nov-14 01:57N 35°27' E 139°40'0 0.0
2017-Nov-14 01:30N 35°27' E 139°40'0 0.0
2017-Nov-14 01:00N 35°27' E 139°40'0 0.0
2017-Nov-14 00:30N 35°27' E 139°40'0 0.0
2017-Nov-13 23:57N 35°27' E 139°40'0 0.0
2017-Nov-13 23:30N 35°27' E 139°40'0 0.0
2017-Nov-13 22:57N 35°27' E 139°40'0 0.0
2017-Nov-13 22:30N 35°27' E 139°40'0 0.0
2017-Nov-13 22:00N 35°27' E 139°40'8 0.3
2017-Nov-12 13:44N 35°27' E 139°50'311.8
2017-Nov-12 13:29N 35°25' E 139°48'611.8
2017-Nov-12 13:00N 35°20' E 139°44'511.1
2017-Nov-12 12:30N 35°15' E 139°47'611.3
2017-Nov-12 12:00N 35°09' E 139°46'611.4
2017-Nov-12 11:30N 35°05' E 139°41'712.1
2017-Nov-12 10:57N 35°01' E 139°35'229 9.3
2017-Nov-11 10:21N 34°13' E 135°03'1512.5
2017-Nov-11 09:07N 34°26' E 135°11'112.0
2017-Nov-11 09:00N 34°27' E 135°12'611.7
2017-Nov-11 08:30N 34°31' E 135°18'0 0.8
2017-Nov-11 08:00N 34°31' E 135°18'3 6.0
2017-Nov-11 07:29N 34°32' E 135°22'1 0.3
2017-Nov-11 03:45N 34°33' E 135°23'312.1
2017-Nov-11 03:29N 34°36' E 135°21'5 9.5
2017-Nov-11 03:01N 34°39' E 135°18'0 0.1
2017-Nov-11 02:30N 34°39' E 135°18'0 0.0
2017-Nov-11 02:00N 34°39' E 135°18'0 0.1
2017-Nov-11 01:30N 34°39' E 135°18'0 0.0
2017-Nov-11 00:59N 34°39' E 135°18'0 0.0
2017-Nov-11 00:30N 34°39' E 135°18'0 0.2
2017-Nov-11 00:00N 34°39' E 135°18'0 0.0
2017-Nov-10 23:30N 34°39' E 135°18'0 0.0
2017-Nov-10 23:00N 34°39' E 135°18'0 0.0
2017-Nov-10 22:30N 34°39' E 135°18'0 0.5
2017-Nov-10 22:00N 34°39' E 135°18'2 3.1
2017-Nov-10 21:30N 34°38' E 135°17'611.4
2017-Nov-10 21:00N 34°37' E 135°10'1 1.2
2017-Nov-10 20:28N 34°37' E 135°09'0 0.0
2017-Nov-10 19:58N 34°37' E 135°09'0 0.0
2017-Nov-10 19:28N 34°37' E 135°09'0 0.0
2017-Nov-10 18:58N 34°37' E 135°09'0 0.0
2017-Nov-10 18:28N 34°37' E 135°09'0 0.0
2017-Nov-10 17:58N 34°37' E 135°09'0 0.0
2017-Nov-10 17:22N 34°37' E 135°09'0 0.0
2017-Nov-10 16:58N 34°37' E 135°09'0 0.1
2017-Nov-10 16:28N 34°37' E 135°09'0 0.0
2017-Nov-10 15:58N 34°37' E 135°09'0 0.0
2017-Nov-10 15:16N 34°37' E 135°09'0 0.0
2017-Nov-10 14:58N 34°37' E 135°09'0 0.0
2017-Nov-10 14:22N 34°37' E 135°09'0 0.0
2017-Nov-10 13:58N 34°37' E 135°09'0 0.0
2017-Nov-10 13:04N 34°37' E 135°09'0 0.1
2017-Nov-10 12:58N 34°37' E 135°09'0 0.0
2017-Nov-10 12:28N 34°37' E 135°09'0 0.1
2017-Nov-10 11:52N 34°37' E 135°09'0 0.0
2017-Nov-10 11:28N 34°37' E 135°09'0 0.0
2017-Nov-10 10:58N 34°37' E 135°09'0 0.0
2017-Nov-10 09:34N 34°37' E 135°09'0 0.0
2017-Nov-10 09:16N 34°37' E 135°09'0 0.0
2017-Nov-10 08:58N 34°37' E 135°09'0 0.0
2017-Nov-10 08:04N 34°37' E 135°09'0 0.0
2017-Nov-10 07:46N 34°37' E 135°09'0 0.0
2017-Nov-10 07:28N 34°37' E 135°09'0 0.0
2017-Nov-10 06:58N 34°37' E 135°09'0 0.0
2017-Nov-10 06:22N 34°37' E 135°09'0 0.0
2017-Nov-10 05:58N 34°37' E 135°09'0 0.0
2017-Nov-10 05:22N 34°37' E 135°09'0 0.0
2017-Nov-10 04:46N 34°37' E 135°09'0 0.0
2017-Nov-10 04:28N 34°37' E 135°09'0 0.0
2017-Nov-10 03:58N 34°37' E 135°09'0 0.0
2017-Nov-10 03:16N 34°37' E 135°09'0 0.0
2017-Nov-10 02:58N 34°37' E 135°09'0 0.0
2017-Nov-10 02:28N 34°37' E 135°09'0 0.2
2017-Nov-10 02:00N 34°37' E 135°09'1 1.6
2017-Nov-10 01:10N 34°39' E 135°09'0 0.0
2017-Nov-10 00:40N 34°39' E 135°09'0 0.0
2017-Nov-10 00:29N 34°39' E 135°09'0 0.0
2017-Nov-10 00:00N 34°39' E 135°09'2 4.2
2017-Nov-09 23:30N 34°40' E 135°11'1 2.7
2017-Nov-09 23:00N 34°41' E 135°12'0 0.0
2017-Nov-09 22:30N 34°41' E 135°12'0 0.0
2017-Nov-09 22:00N 34°41' E 135°12'0 0.0
2017-Nov-09 21:30N 34°41' E 135°12'0 0.0
2017-Nov-09 21:00N 34°41' E 135°12'0 0.0
2017-Nov-09 20:30N 34°41' E 135°12'0 0.0
2017-Nov-09 20:00N 34°41' E 135°12'0 0.0
2017-Nov-09 19:30N 34°41' E 135°12'0 0.0
2017-Nov-09 19:00N 34°41' E 135°12'0 0.0
2017-Nov-09 18:30N 34°41' E 135°12'0 0.0
2017-Nov-09 17:59N 34°41' E 135°12'0 0.0
2017-Nov-09 17:30N 34°41' E 135°12'0 0.0
2017-Nov-09 17:00N 34°41' E 135°12'0 0.0
2017-Nov-09 16:30N 34°41' E 135°12'0 0.0
2017-Nov-09 16:00N 34°41' E 135°12'0 0.0
2017-Nov-09 15:30N 34°41' E 135°12'0 0.0
2017-Nov-09 15:00N 34°41' E 135°12'0 0.0
2017-Nov-09 14:30N 34°41' E 135°12'0 0.0
2017-Nov-09 14:00N 34°41' E 135°12'0 0.0
2017-Nov-09 13:30N 34°41' E 135°12'0 0.0
2017-Nov-09 13:00N 34°41' E 135°12'0 0.0
2017-Nov-09 12:30N 34°41' E 135°12'0 0.0
2017-Nov-09 12:00N 34°41' E 135°12'0 0.0
2017-Nov-09 11:30N 34°41' E 135°12'0 0.0
2017-Nov-09 11:00N 34°41' E 135°12'0 0.0
2017-Nov-09 10:30N 34°41' E 135°12'0 0.0
2017-Nov-09 10:00N 34°41' E 135°12'0 0.0
2017-Nov-09 09:30N 34°41' E 135°12'0 0.0
2017-Nov-09 09:00N 34°41' E 135°12'0 0.0
2017-Nov-09 08:30N 34°41' E 135°12'0 0.0
2017-Nov-09 08:00N 34°41' E 135°12'0 0.0
2017-Nov-09 07:30N 34°41' E 135°12'0 0.0
2017-Nov-09 07:00N 34°41' E 135°12'0 0.0
2017-Nov-09 06:30N 34°41' E 135°12'0 0.0
2017-Nov-09 06:00N 34°41' E 135°12'0 0.0
2017-Nov-09 05:30N 34°41' E 135°12'2 4.3
2017-Nov-09 05:00N 34°39' E 135°11'4 7.4
2017-Nov-09 04:30N 34°37' E 135°08'  

Dump ship's entire track history